sensor_id;sensor_type;location;lat;lon;timestamp;pressure;altitude;pressure_sealevel;temperature;humidity
61676;BME280;47574;52.090;5.244;2023-09-19T00:02:43;100678.0;;;21.02;58.82
61676;BME280;47574;52.090;5.244;2023-09-19T00:04:19;100682.0;;;21.05;59.23
61676;BME280;47574;52.090;5.244;2023-09-19T00:05:55;100683.0;;;20.99;58.64
61676;BME280;47574;52.090;5.244;2023-09-19T00:09:09;100686.0;;;20.63;59.01
61676;BME280;47574;52.090;5.244;2023-09-19T00:10:45;100688.0;;;20.38;58.92
61676;BME280;47574;52.090;5.244;2023-09-19T00:12:21;100693.0;;;20.2;59.76
61676;BME280;47574;52.090;5.244;2023-09-19T00:15:37;100691.0;;;20.66;59.0
61676;BME280;47574;52.090;5.244;2023-09-19T00:17:15;100692.0;;;20.65;59.24
61676;BME280;47574;52.090;5.244;2023-09-19T00:18:51;100692.0;;;20.66;58.87
61676;BME280;47574;52.090;5.244;2023-09-19T00:20:27;100691.0;;;20.65;58.53
61676;BME280;47574;52.090;5.244;2023-09-19T00:23:39;100691.0;;;20.82;58.76
61676;BME280;47574;52.090;5.244;2023-09-19T00:25:15;100690.0;;;20.94;58.55
61676;BME280;47574;52.090;5.244;2023-09-19T00:26:51;100690.0;;;21.08;58.83
61676;BME280;47574;52.090;5.244;2023-09-19T00:30:05;100695.0;;;20.98;58.63
61676;BME280;47574;52.090;5.244;2023-09-19T00:31:43;100698.0;;;20.94;58.74
61676;BME280;47574;52.090;5.244;2023-09-19T00:33:19;100699.0;;;20.98;58.83
61676;BME280;47574;52.090;5.244;2023-09-19T00:36:31;100698.0;;;21.15;57.83
61676;BME280;47574;52.090;5.244;2023-09-19T00:38:07;100701.0;;;20.72;58.46
61676;BME280;47574;52.090;5.244;2023-09-19T00:39:43;100703.0;;;21.09;58.1
61676;BME280;47574;52.090;5.244;2023-09-19T00:41:19;100697.0;;;20.83;58.41
61676;BME280;47574;52.090;5.244;2023-09-19T00:44:33;100700.0;;;20.87;58.8
61676;BME280;47574;52.090;5.244;2023-09-19T00:46:09;100703.0;;;20.87;58.61
61676;BME280;47574;52.090;5.244;2023-09-19T00:47:48;100705.0;;;20.76;58.7
61676;BME280;47574;52.090;5.244;2023-09-19T00:51:04;100703.0;;;20.79;58.41
61676;BME280;47574;52.090;5.244;2023-09-19T00:52:40;100705.0;;;21.04;58.54
61676;BME280;47574;52.090;5.244;2023-09-19T00:54:18;100710.0;;;20.97;58.6
61676;BME280;47574;52.090;5.244;2023-09-19T00:57:31;100708.0;;;20.83;58.52
61676;BME280;47574;52.090;5.244;2023-09-19T00:59:08;100713.0;;;20.63;59.13
61676;BME280;47574;52.090;5.244;2023-09-19T01:00:45;100716.0;;;20.71;59.03
61676;BME280;47574;52.090;5.244;2023-09-19T01:02:21;100717.0;;;20.64;59.22
61676;BME280;47574;52.090;5.244;2023-09-19T01:05:33;100718.0;;;20.74;58.81
61676;BME280;47574;52.090;5.244;2023-09-19T01:07:10;100719.0;;;20.77;58.66
61676;BME280;47574;52.090;5.244;2023-09-19T01:08:46;100716.0;;;20.96;58.73
61676;BME280;47574;52.090;5.244;2023-09-19T01:12:01;100717.0;;;20.86;58.29
61676;BME280;47574;52.090;5.244;2023-09-19T01:13:55;100720.0;;;20.94;58.47
61676;BME280;47574;52.090;5.244;2023-09-19T01:15:42;100716.0;;;21.02;58.19
61676;BME280;47574;52.090;5.244;2023-09-19T01:17:29;100720.0;;;21.07;58.56
61676;BME280;47574;52.090;5.244;2023-09-19T01:19:32;100719.0;;;21.16;58.03
61676;BME280;47574;52.090;5.244;2023-09-19T01:21:39;100722.0;;;21.08;58.18
61676;BME280;47574;52.090;5.244;2023-09-19T01:23:24;100723.0;;;21.0;57.98
61676;BME280;47574;52.090;5.244;2023-09-19T01:27:25;100725.0;;;21.14;58.05
61676;BME280;47574;52.090;5.244;2023-09-19T01:29:26;100728.0;;;21.01;58.16
61676;BME280;47574;52.090;5.244;2023-09-19T01:31:09;100726.0;;;21.07;57.15
61676;BME280;47574;52.090;5.244;2023-09-19T01:32:47;100720.0;;;20.8;57.68
61676;BME280;47574;52.090;5.244;2023-09-19T01:34:25;100719.0;;;20.77;57.42
61676;BME280;47574;52.090;5.244;2023-09-19T01:36:01;100725.0;;;20.95;57.39
61676;BME280;47574;52.090;5.244;2023-09-19T01:39:14;100723.0;;;20.97;56.84
61676;BME280;47574;52.090;5.244;2023-09-19T01:40:57;100725.0;;;21.11;57.2
61676;BME280;47574;52.090;5.244;2023-09-19T01:42:43;100728.0;;;20.88;56.47
61676;BME280;47574;52.090;5.244;2023-09-19T01:44:36;100733.0;;;20.97;56.88
61676;BME280;47574;52.090;5.244;2023-09-19T01:46:21;100734.0;;;21.09;56.86
61676;BME280;47574;52.090;5.244;2023-09-19T01:50:06;100734.0;;;20.96;56.81
61676;BME280;47574;52.090;5.244;2023-09-19T01:51:57;100732.0;;;20.87;56.91
61676;BME280;47574;52.090;5.244;2023-09-19T01:53:41;100738.0;;;21.01;56.65
61676;BME280;47574;52.090;5.244;2023-09-19T01:55:20;100735.0;;;20.88;56.1
61676;BME280;47574;52.090;5.244;2023-09-19T01:57:02;100740.0;;;20.72;56.22
61676;BME280;47574;52.090;5.244;2023-09-19T01:58:45;100743.0;;;20.73;56.0
61676;BME280;47574;52.090;5.244;2023-09-19T02:02:06;100742.0;;;20.32;56.74
61676;BME280;47574;52.090;5.244;2023-09-19T02:03:43;100738.0;;;20.56;56.49
61676;BME280;47574;52.090;5.244;2023-09-19T02:05:22;100740.0;;;20.27;56.48
61676;BME280;47574;52.090;5.244;2023-09-19T02:08:37;100740.0;;;20.46;55.85
61676;BME280;47574;52.090;5.244;2023-09-19T02:10:13;100735.0;;;20.47;55.86
61676;BME280;47574;52.090;5.244;2023-09-19T02:11:49;100735.0;;;20.36;55.8
61676;BME280;47574;52.090;5.244;2023-09-19T02:13:26;100736.0;;;20.61;55.79
61676;BME280;47574;52.090;5.244;2023-09-19T02:16:38;100735.0;;;20.87;55.28
61676;BME280;47574;52.090;5.244;2023-09-19T02:18:14;100728.0;;;20.73;55.38
61676;BME280;47574;52.090;5.244;2023-09-19T02:19:50;100730.0;;;20.54;55.63
61676;BME280;47574;52.090;5.244;2023-09-19T02:23:03;100733.0;;;20.49;56.42
61676;BME280;47574;52.090;5.244;2023-09-19T02:24:39;100738.0;;;20.46;55.78
61676;BME280;47574;52.090;5.244;2023-09-19T02:26:15;100738.0;;;20.59;55.98
61676;BME280;47574;52.090;5.244;2023-09-19T02:29:28;100738.0;;;20.75;56.0
61676;BME280;47574;52.090;5.244;2023-09-19T02:31:04;100742.0;;;20.79;56.51
61676;BME280;47574;52.090;5.244;2023-09-19T02:32:40;100741.0;;;20.54;56.45
61676;BME280;47574;52.090;5.244;2023-09-19T02:34:16;100742.0;;;20.43;57.06
61676;BME280;47574;52.090;5.244;2023-09-19T02:37:31;100749.0;;;20.38;57.38
61676;BME280;47574;52.090;5.244;2023-09-19T02:39:07;100745.0;;;20.47;56.75
61676;BME280;47574;52.090;5.244;2023-09-19T02:40:43;100748.0;;;20.37;56.6
61676;BME280;47574;52.090;5.244;2023-09-19T02:43:55;100752.0;;;19.96;57.15
61676;BME280;47574;52.090;5.244;2023-09-19T02:45:32;100751.0;;;20.04;57.38
61676;BME280;47574;52.090;5.244;2023-09-19T02:47:08;100755.0;;;20.6;56.6
61676;BME280;47574;52.090;5.244;2023-09-19T02:50:20;100753.0;;;20.58;56.86
61676;BME280;47574;52.090;5.244;2023-09-19T02:51:56;100753.0;;;19.93;57.72
61676;BME280;47574;52.090;5.244;2023-09-19T02:53:32;100751.0;;;20.05;57.57
61676;BME280;47574;52.090;5.244;2023-09-19T02:56:44;100751.0;;;20.25;56.74
61676;BME280;47574;52.090;5.244;2023-09-19T02:58:20;100747.0;;;20.25;57.23
61676;BME280;47574;52.090;5.244;2023-09-19T02:59:56;100752.0;;;20.18;57.14
61676;BME280;47574;52.090;5.244;2023-09-19T03:01:33;100762.0;;;19.89;57.09
61676;BME280;47574;52.090;5.244;2023-09-19T03:04:45;100759.0;;;19.79;57.29
61676;BME280;47574;52.090;5.244;2023-09-19T03:06:21;100755.0;;;20.29;56.39
61676;BME280;47574;52.090;5.244;2023-09-19T03:07:57;100755.0;;;19.97;56.38
61676;BME280;47574;52.090;5.244;2023-09-19T03:11:09;100749.0;;;19.91;56.45
61676;BME280;47574;52.090;5.244;2023-09-19T03:12:45;100751.0;;;19.59;56.79
61676;BME280;47574;52.090;5.244;2023-09-19T03:14:21;100745.0;;;19.91;56.6
61676;BME280;47574;52.090;5.244;2023-09-19T03:17:34;100752.0;;;19.72;56.56
61676;BME280;47574;52.090;5.244;2023-09-19T03:19:10;100753.0;;;19.46;56.98
61676;BME280;47574;52.090;5.244;2023-09-19T03:20:52;100745.0;;;19.5;56.64
61676;BME280;47574;52.090;5.244;2023-09-19T03:22:28;100749.0;;;19.52;57.09
61676;BME280;47574;52.090;5.244;2023-09-19T03:25:40;100752.0;;;19.73;56.4
61676;BME280;47574;52.090;5.244;2023-09-19T03:27:16;100750.0;;;19.55;57.14
61676;BME280;47574;52.090;5.244;2023-09-19T03:28:53;100751.0;;;19.56;56.39
61676;BME280;47574;52.090;5.244;2023-09-19T03:32:05;100755.0;;;19.61;56.01
61676;BME280;47574;52.090;5.244;2023-09-19T03:33:42;100755.0;;;19.72;56.27
61676;BME280;47574;52.090;5.244;2023-09-19T03:35:18;100760.0;;;19.43;56.22
61676;BME280;47574;52.090;5.244;2023-09-19T03:38:31;100755.0;;;19.66;55.48
61676;BME280;47574;52.090;5.244;2023-09-19T03:40:09;100744.0;;;19.75;55.77
61676;BME280;47574;52.090;5.244;2023-09-19T03:41:45;100741.0;;;19.84;54.95
61676;BME280;47574;52.090;5.244;2023-09-19T03:43:21;100740.0;;;19.68;55.37
61676;BME280;47574;52.090;5.244;2023-09-19T03:46:33;100740.0;;;19.59;54.95
61676;BME280;47574;52.090;5.244;2023-09-19T03:48:10;100741.0;;;19.66;54.98
61676;BME280;47574;52.090;5.244;2023-09-19T03:49:45;100744.0;;;19.66;54.49
61676;BME280;47574;52.090;5.244;2023-09-19T03:52:58;100749.0;;;19.45;54.72
61676;BME280;47574;52.090;5.244;2023-09-19T03:54:34;100746.0;;;19.55;54.48
61676;BME280;47574;52.090;5.244;2023-09-19T03:56:10;100742.0;;;19.53;54.63
61676;BME280;47574;52.090;5.244;2023-09-19T03:59:24;100751.0;;;19.53;54.32
61676;BME280;47574;52.090;5.244;2023-09-19T04:01:00;100756.0;;;19.55;54.76
61676;BME280;47574;52.090;5.244;2023-09-19T04:02:37;100767.0;;;19.47;54.66
61676;BME280;47574;52.090;5.244;2023-09-19T04:04:13;100768.0;;;19.47;54.13
61676;BME280;47574;52.090;5.244;2023-09-19T04:07:26;100768.0;;;19.34;54.7
61676;BME280;47574;52.090;5.244;2023-09-19T04:09:02;100766.0;;;19.07;54.87
61676;BME280;47574;52.090;5.244;2023-09-19T04:10:41;100773.0;;;19.22;54.45
61676;BME280;47574;52.090;5.244;2023-09-19T04:13:54;100778.0;;;19.5;53.92
61676;BME280;47574;52.090;5.244;2023-09-19T04:15:30;100780.0;;;19.41;54.17
61676;BME280;47574;52.090;5.244;2023-09-19T04:17:06;100775.0;;;18.97;54.45
61676;BME280;47574;52.090;5.244;2023-09-19T04:20:19;100784.0;;;19.32;54.6
61676;BME280;47574;52.090;5.244;2023-09-19T04:21:55;100780.0;;;19.09;54.28
61676;BME280;47574;52.090;5.244;2023-09-19T04:23:31;100790.0;;;19.2;54.54
61676;BME280;47574;52.090;5.244;2023-09-19T04:26:43;100792.0;;;19.09;54.62
61676;BME280;47574;52.090;5.244;2023-09-19T04:28:19;100788.0;;;19.0;54.7
61676;BME280;47574;52.090;5.244;2023-09-19T04:29:55;100798.0;;;19.36;54.17
61676;BME280;47574;52.090;5.244;2023-09-19T04:31:31;100800.0;;;19.38;54.17
61676;BME280;47574;52.090;5.244;2023-09-19T04:34:43;100801.0;;;19.25;54.28
61676;BME280;47574;52.090;5.244;2023-09-19T04:36:19;100796.0;;;19.16;54.88
61676;BME280;47574;52.090;5.244;2023-09-19T04:37:56;100801.0;;;19.25;54.45
61676;BME280;47574;52.090;5.244;2023-09-19T04:41:08;100802.0;;;19.16;54.82
61676;BME280;47574;52.090;5.244;2023-09-19T04:42:44;100806.0;;;19.34;54.46
61676;BME280;47574;52.090;5.244;2023-09-19T04:44:20;100812.0;;;19.52;54.15
61676;BME280;47574;52.090;5.244;2023-09-19T04:47:32;100815.0;;;19.72;54.0
61676;BME280;47574;52.090;5.244;2023-09-19T04:49:08;100814.0;;;19.53;54.24
61676;BME280;47574;52.090;5.244;2023-09-19T04:50:44;100809.0;;;19.28;54.3
61676;BME280;47574;52.090;5.244;2023-09-19T04:52:21;100816.0;;;19.46;54.01
61676;BME280;47574;52.090;5.244;2023-09-19T04:55:33;100815.0;;;19.59;54.39
61676;BME280;47574;52.090;5.244;2023-09-19T04:57:09;100814.0;;;19.43;54.91
61676;BME280;47574;52.090;5.244;2023-09-19T04:58:45;100812.0;;;19.61;54.16
61676;BME280;47574;52.090;5.244;2023-09-19T05:01:58;100810.0;;;19.48;54.17
61676;BME280;47574;52.090;5.244;2023-09-19T05:03:34;100808.0;;;19.56;54.37
61676;BME280;47574;52.090;5.244;2023-09-19T05:05:10;100809.0;;;19.27;54.4
61676;BME280;47574;52.090;5.244;2023-09-19T05:08:23;100816.0;;;19.57;54.02
61676;BME280;47574;52.090;5.244;2023-09-19T05:10:00;100820.0;;;19.43;54.56
61676;BME280;47574;52.090;5.244;2023-09-19T05:11:36;100811.0;;;19.27;54.92
61676;BME280;47574;52.090;5.244;2023-09-19T05:14:48;100816.0;;;19.47;54.33
61676;BME280;47574;52.090;5.244;2023-09-19T05:16:24;100817.0;;;19.41;54.59
61676;BME280;47574;52.090;5.244;2023-09-19T05:19:36;100823.0;;;19.57;54.36
61676;BME280;47574;52.090;5.244;2023-09-19T05:22:48;100812.0;;;19.53;54.42
61676;BME280;47574;52.090;5.244;2023-09-19T05:24:24;100811.0;;;19.53;55.3
61676;BME280;47574;52.090;5.244;2023-09-19T05:26:00;100811.0;;;19.52;54.98
61676;BME280;47574;52.090;5.244;2023-09-19T05:29:12;100813.0;;;19.05;55.21
61676;BME280;47574;52.090;5.244;2023-09-19T05:30:48;100817.0;;;19.52;54.55
61676;BME280;47574;52.090;5.244;2023-09-19T05:32:24;100821.0;;;19.43;55.15
61676;BME280;47574;52.090;5.244;2023-09-19T05:35:36;100811.0;;;19.46;55.3
61676;BME280;47574;52.090;5.244;2023-09-19T05:37:12;100811.0;;;19.47;54.66
61676;BME280;47574;52.090;5.244;2023-09-19T05:38:48;100805.0;;;19.16;55.08
61676;BME280;47574;52.090;5.244;2023-09-19T05:42:02;100809.0;;;19.25;55.45
61676;BME280;47574;52.090;5.244;2023-09-19T05:43:38;100813.0;;;19.45;55.28
61676;BME280;47574;52.090;5.244;2023-09-19T05:45:14;100810.0;;;19.27;55.49
61676;BME280;47574;52.090;5.244;2023-09-19T05:46:50;100812.0;;;19.04;56.3
61676;BME280;47574;52.090;5.244;2023-09-19T05:50:03;100814.0;;;19.03;56.03
61676;BME280;47574;52.090;5.244;2023-09-19T05:51:38;100814.0;;;18.77;56.84
61676;BME280;47574;52.090;5.244;2023-09-19T05:53:14;100819.0;;;19.23;56.29
61676;BME280;47574;52.090;5.244;2023-09-19T05:56:27;100827.0;;;19.23;55.99
61676;BME280;47574;52.090;5.244;2023-09-19T05:58:03;100827.0;;;19.18;55.8
61676;BME280;47574;52.090;5.244;2023-09-19T05:59:39;100830.0;;;19.31;56.05
61676;BME280;47574;52.090;5.244;2023-09-19T06:02:51;100827.0;;;19.34;55.58
61676;BME280;47574;52.090;5.244;2023-09-19T06:04:27;100831.0;;;19.41;55.7
61676;BME280;47574;52.090;5.244;2023-09-19T06:06:03;100841.0;;;19.45;55.83
61676;BME280;47574;52.090;5.244;2023-09-19T06:07:39;100843.0;;;19.62;55.67
61676;BME280;47574;52.090;5.244;2023-09-19T06:10:51;100844.0;;;19.81;55.14
61676;BME280;47574;52.090;5.244;2023-09-19T06:12:28;100845.0;;;19.84;54.82
61676;BME280;47574;52.090;5.244;2023-09-19T06:14:04;100844.0;;;19.0;56.54
61676;BME280;47574;52.090;5.244;2023-09-19T06:17:16;100850.0;;;19.77;55.29
61676;BME280;47574;52.090;5.244;2023-09-19T06:18:52;100849.0;;;19.87;55.3
61676;BME280;47574;52.090;5.244;2023-09-19T06:20:28;100845.0;;;19.56;55.8
61676;BME280;47574;52.090;5.244;2023-09-19T06:23:40;100852.0;;;19.86;55.41
61676;BME280;47574;52.090;5.244;2023-09-19T06:25:17;100853.0;;;19.88;55.34
61676;BME280;47574;52.090;5.244;2023-09-19T06:26:53;100850.0;;;19.54;56.36
61676;BME280;47574;52.090;5.244;2023-09-19T06:30:07;100845.0;;;19.56;56.21
61676;BME280;47574;52.090;5.244;2023-09-19T06:31:43;100850.0;;;19.61;56.29
61676;BME280;47574;52.090;5.244;2023-09-19T06:33:19;100848.0;;;19.78;55.8
61676;BME280;47574;52.090;5.244;2023-09-19T06:34:55;100851.0;;;19.84;55.74
61676;BME280;47574;52.090;5.244;2023-09-19T06:38:07;100848.0;;;19.59;56.02
61676;BME280;47574;52.090;5.244;2023-09-19T06:39:43;100849.0;;;19.89;56.08
61676;BME280;47574;52.090;5.244;2023-09-19T06:41:19;100847.0;;;19.95;55.51
61676;BME280;47574;52.090;5.244;2023-09-19T06:44:32;100843.0;;;19.59;56.45
61676;BME280;47574;52.090;5.244;2023-09-19T06:46:08;100846.0;;;19.75;56.29
61676;BME280;47574;52.090;5.244;2023-09-19T06:47:44;100834.0;;;19.75;56.64
61676;BME280;47574;52.090;5.244;2023-09-19T06:50:57;100842.0;;;19.55;56.83
61676;BME280;47574;52.090;5.244;2023-09-19T06:52:33;100846.0;;;19.91;56.1
61676;BME280;47574;52.090;5.244;2023-09-19T06:54:09;100851.0;;;19.62;56.62
61676;BME280;47574;52.090;5.244;2023-09-19T06:57:21;100842.0;;;19.45;57.0
61676;BME280;47574;52.090;5.244;2023-09-19T06:58:57;100848.0;;;19.84;56.64
61676;BME280;47574;52.090;5.244;2023-09-19T07:00:33;100843.0;;;19.91;56.54
61676;BME280;47574;52.090;5.244;2023-09-19T07:02:10;100840.0;;;19.93;56.07
61676;BME280;47574;52.090;5.244;2023-09-19T07:05:22;100846.0;;;20.03;56.27
61676;BME280;47574;52.090;5.244;2023-09-19T07:06:58;100842.0;;;19.45;57.54
61676;BME280;47574;52.090;5.244;2023-09-19T07:08:34;100844.0;;;19.43;57.87
61676;BME280;47574;52.090;5.244;2023-09-19T07:11:46;100848.0;;;19.66;57.26
61676;BME280;47574;52.090;5.244;2023-09-19T07:13:22;100849.0;;;19.93;56.63
61676;BME280;47574;52.090;5.244;2023-09-19T07:14:58;100846.0;;;19.52;57.4
61676;BME280;47574;52.090;5.244;2023-09-19T07:18:11;100855.0;;;19.91;56.75
61676;BME280;47574;52.090;5.244;2023-09-19T07:19:47;100859.0;;;19.84;57.03
61676;BME280;47574;52.090;5.244;2023-09-19T07:21:23;100863.0;;;19.97;56.78
61676;BME280;47574;52.090;5.244;2023-09-19T07:22:59;100863.0;;;19.71;57.39
61676;BME280;47574;52.090;5.244;2023-09-19T07:26:11;100863.0;;;19.89;57.27
61676;BME280;47574;52.090;5.244;2023-09-19T07:27:47;100863.0;;;20.06;56.91
61676;BME280;47574;52.090;5.244;2023-09-19T07:29:23;100866.0;;;19.77;57.05
61676;BME280;47574;52.090;5.244;2023-09-19T07:32:38;100865.0;;;20.0;56.95
61676;BME280;47574;52.090;5.244;2023-09-19T07:34:14;100868.0;;;19.87;57.09
61676;BME280;47574;52.090;5.244;2023-09-19T07:35:50;100874.0;;;19.91;56.95
61676;BME280;47574;52.090;5.244;2023-09-19T07:39:02;100873.0;;;19.91;56.81
61676;BME280;47574;52.090;5.244;2023-09-19T07:40:38;100865.0;;;19.66;57.24
61676;BME280;47574;52.090;5.244;2023-09-19T07:42:15;100871.0;;;19.84;57.23
61676;BME280;47574;52.090;5.244;2023-09-19T07:45:27;100873.0;;;19.71;57.48
61676;BME280;47574;52.090;5.244;2023-09-19T07:47:03;100870.0;;;19.64;57.69
61676;BME280;47574;52.090;5.244;2023-09-19T07:48:39;100876.0;;;19.77;57.27
61676;BME280;47574;52.090;5.244;2023-09-19T07:50:16;100873.0;;;19.62;57.6
61676;BME280;47574;52.090;5.244;2023-09-19T07:53:29;100878.0;;;19.86;57.31
61676;BME280;47574;52.090;5.244;2023-09-19T07:55:05;100881.0;;;19.77;57.64
61676;BME280;47574;52.090;5.244;2023-09-19T07:56:42;100880.0;;;20.2;56.85
61676;BME280;47574;52.090;5.244;2023-09-19T07:59:54;100871.0;;;20.13;56.82
61676;BME280;47574;52.090;5.244;2023-09-19T08:01:30;100882.0;;;20.16;56.59
61676;BME280;47574;52.090;5.244;2023-09-19T08:03:06;100878.0;;;19.88;57.09
61676;BME280;47574;52.090;5.244;2023-09-19T08:06:19;100881.0;;;20.07;56.95
61676;BME280;47574;52.090;5.244;2023-09-19T08:07:55;100882.0;;;20.27;56.68
61676;BME280;47574;52.090;5.244;2023-09-19T08:09:31;100886.0;;;20.02;57.04
61676;BME280;47574;52.090;5.244;2023-09-19T08:11:07;100885.0;;;20.25;56.58
61676;BME280;47574;52.090;5.244;2023-09-19T08:14:19;100882.0;;;20.18;56.5
61676;BME280;47574;52.090;5.244;2023-09-19T08:15:55;100885.0;;;20.2;56.55
61676;BME280;47574;52.090;5.244;2023-09-19T08:17:33;100889.0;;;20.0;57.3
61676;BME280;47574;52.090;5.244;2023-09-19T08:20:49;100883.0;;;20.18;56.74
61676;BME280;47574;52.090;5.244;2023-09-19T08:22:26;100880.0;;;20.53;56.13
61676;BME280;47574;52.090;5.244;2023-09-19T08:24:02;100872.0;;;20.59;55.75
61676;BME280;47574;52.090;5.244;2023-09-19T08:27:14;100867.0;;;20.87;55.56
61676;BME280;47574;52.090;5.244;2023-09-19T08:28:50;100866.0;;;20.88;55.2
61676;BME280;47574;52.090;5.244;2023-09-19T08:30:26;100870.0;;;20.98;55.29
61676;BME280;47574;52.090;5.244;2023-09-19T08:32:03;100864.0;;;20.76;55.5
61676;BME280;47574;52.090;5.244;2023-09-19T08:35:15;100880.0;;;20.68;55.9
61676;BME280;47574;52.090;5.244;2023-09-19T08:36:52;100871.0;;;20.75;55.48
61676;BME280;47574;52.090;5.244;2023-09-19T08:38:29;100864.0;;;20.88;55.69
61676;BME280;47574;52.090;5.244;2023-09-19T08:41:42;100876.0;;;20.79;55.39
61676;BME280;47574;52.090;5.244;2023-09-19T08:43:21;100861.0;;;21.03;55.19
61676;BME280;47574;52.090;5.244;2023-09-19T08:44:57;100858.0;;;21.22;54.56
61676;BME280;47574;52.090;5.244;2023-09-19T08:48:22;100855.0;;;20.92;54.89
61676;BME280;47574;52.090;5.244;2023-09-19T08:50:04;100857.0;;;20.96;54.85
61676;BME280;47574;52.090;5.244;2023-09-19T08:51:48;100863.0;;;21.19;54.33
61676;BME280;47574;52.090;5.244;2023-09-19T08:53:41;100862.0;;;20.94;54.81
61676;BME280;47574;52.090;5.244;2023-09-19T08:55:18;100858.0;;;20.91;54.65
61676;BME280;47574;52.090;5.244;2023-09-19T08:58:41;100864.0;;;20.94;54.39
61676;BME280;47574;52.090;5.244;2023-09-19T09:00:27;100863.0;;;21.13;54.07
61676;BME280;47574;52.090;5.244;2023-09-19T09:02:04;100860.0;;;21.43;53.93
61676;BME280;47574;52.090;5.244;2023-09-19T09:03:45;100868.0;;;20.94;54.11
61676;BME280;47574;52.090;5.244;2023-09-19T09:07:01;100860.0;;;21.18;53.68
61676;BME280;47574;52.090;5.244;2023-09-19T09:08:38;100858.0;;;21.3;53.43
61676;BME280;47574;52.090;5.244;2023-09-19T09:10:14;100860.0;;;21.17;53.14
61676;BME280;47574;52.090;5.244;2023-09-19T09:11:52;100857.0;;;21.13;53.16
61676;BME280;47574;52.090;5.244;2023-09-19T09:15:07;100862.0;;;21.27;53.04
61676;BME280;47574;52.090;5.244;2023-09-19T09:16:43;100862.0;;;21.7;52.59
61676;BME280;47574;52.090;5.244;2023-09-19T09:18:19;100859.0;;;21.43;53.03
61676;BME280;47574;52.090;5.244;2023-09-19T09:21:31;100860.0;;;21.63;52.02
61676;BME280;47574;52.090;5.244;2023-09-19T09:23:07;100855.0;;;21.55;52.33
61676;BME280;47574;52.090;5.244;2023-09-19T09:24:51;100848.0;;;21.83;51.93
61676;BME280;47574;52.090;5.244;2023-09-19T09:26:44;100844.0;;;21.41;52.13
61676;BME280;47574;52.090;5.244;2023-09-19T09:29:58;100848.0;;;21.9;51.73
61676;BME280;47574;52.090;5.244;2023-09-19T09:31:34;100846.0;;;22.17;51.3
61676;BME280;47574;52.090;5.244;2023-09-19T09:33:11;100848.0;;;21.97;51.16
61676;BME280;47574;52.090;5.244;2023-09-19T09:34:50;100847.0;;;22.01;51.16
61676;BME280;47574;52.090;5.244;2023-09-19T09:38:15;100845.0;;;21.55;51.83
61676;BME280;47574;52.090;5.244;2023-09-19T09:39:53;100852.0;;;21.93;51.43
61676;BME280;47574;52.090;5.244;2023-09-19T09:41:36;100835.0;;;21.92;51.35
61676;BME280;47574;52.090;5.244;2023-09-19T09:43:25;100834.0;;;22.05;51.58
61676;BME280;47574;52.090;5.244;2023-09-19T09:46:56;100844.0;;;22.13;51.41
61676;BME280;47574;52.090;5.244;2023-09-19T09:48:32;100828.0;;;21.9;51.45
61676;BME280;47574;52.090;5.244;2023-09-19T09:50:08;100845.0;;;21.88;51.46
61676;BME280;47574;52.090;5.244;2023-09-19T09:51:45;100841.0;;;21.41;52.57
61676;BME280;47574;52.090;5.244;2023-09-19T09:55:04;100842.0;;;21.35;52.81
61676;BME280;47574;52.090;5.244;2023-09-19T09:56:56;100833.0;;;22.15;51.69
61676;BME280;47574;52.090;5.244;2023-09-19T09:58:33;100838.0;;;22.01;51.71
61676;BME280;47574;52.090;5.244;2023-09-19T10:00:10;100836.0;;;22.44;50.99
61676;BME280;47574;52.090;5.244;2023-09-19T10:03:31;100836.0;;;22.08;51.01
61676;BME280;47574;52.090;5.244;2023-09-19T10:05:12;100830.0;;;22.15;50.77
61676;BME280;47574;52.090;5.244;2023-09-19T10:06:49;100844.0;;;22.06;50.95
61676;BME280;47574;52.090;5.244;2023-09-19T10:08:27;100855.0;;;21.62;51.3
61676;BME280;47574;52.090;5.244;2023-09-19T10:11:41;100840.0;;;21.55;51.5
61676;BME280;47574;52.090;5.244;2023-09-19T10:13:19;100850.0;;;21.91;51.15
61676;BME280;47574;52.090;5.244;2023-09-19T10:14:57;100851.0;;;22.1;50.81
61676;BME280;47574;52.090;5.244;2023-09-19T10:18:19;100837.0;;;22.38;50.31
61676;BME280;47574;52.090;5.244;2023-09-19T10:19:56;100833.0;;;22.49;50.02
61676;BME280;47574;52.090;5.244;2023-09-19T10:21:33;100825.0;;;22.78;49.56
61676;BME280;47574;52.090;5.244;2023-09-19T10:23:11;100830.0;;;22.8;49.5
61676;BME280;47574;52.090;5.244;2023-09-19T10:26:26;100834.0;;;22.39;49.82
61676;BME280;47574;52.090;5.244;2023-09-19T10:28:05;100827.0;;;22.29;50.23
61676;BME280;47574;52.090;5.244;2023-09-19T10:29:43;100816.0;;;22.29;50.03
61676;BME280;47574;52.090;5.244;2023-09-19T10:31:21;100814.0;;;22.56;49.84
61676;BME280;47574;52.090;5.244;2023-09-19T10:34:38;100803.0;;;22.56;49.86
61676;BME280;47574;52.090;5.244;2023-09-19T10:36:17;100801.0;;;22.83;49.65
61676;BME280;47574;52.090;5.244;2023-09-19T10:37:55;100803.0;;;22.28;50.38
61676;BME280;47574;52.090;5.244;2023-09-19T10:41:10;100807.0;;;23.03;49.58
61676;BME280;47574;52.090;5.244;2023-09-19T10:42:49;100796.0;;;22.61;49.92
61676;BME280;47574;52.090;5.244;2023-09-19T10:44:27;100789.0;;;22.3;50.04
61676;BME280;47574;52.090;5.244;2023-09-19T10:46:08;100801.0;;;22.57;49.94
61676;BME280;47574;52.090;5.244;2023-09-19T10:49:20;100792.0;;;22.68;49.69
61676;BME280;47574;52.090;5.244;2023-09-19T10:51:01;100789.0;;;22.88;49.4
61676;BME280;47574;52.090;5.244;2023-09-19T10:52:42;100793.0;;;23.35;48.48
61676;BME280;47574;52.090;5.244;2023-09-19T10:54:20;100790.0;;;23.11;48.66
61676;BME280;47574;52.090;5.244;2023-09-19T10:57:37;100777.0;;;23.47;48.23
61676;BME280;47574;52.090;5.244;2023-09-19T10:59:15;100792.0;;;23.51;48.17
61676;BME280;47574;52.090;5.244;2023-09-19T11:00:53;100788.0;;;23.4;47.7
61676;BME280;47574;52.090;5.244;2023-09-19T11:04:22;100773.0;;;23.41;48.18
61676;BME280;47574;52.090;5.244;2023-09-19T11:06:01;100780.0;;;23.21;48.39
61676;BME280;47574;52.090;5.244;2023-09-19T11:07:57;100776.0;;;23.44;47.83
61676;BME280;47574;52.090;5.244;2023-09-19T11:09:49;100778.0;;;23.24;48.15